Terminal Aerodrome Forecast
Issued by NWS Boston, MA

Home | Current Version | Previous Version | Text Only | Print | Product List | Glossary On
Versions: 1 2 3 4 5 6 7 8 9 10 11 12 13 14 15 16 17 18 19 20 21 22 23 24 25 26 27 28 29 30 31 32 33 34
000
FTUS41 KBOX 160539
TAFORH
TAF
KORH 160539Z 1606/1706 00000KT P6SM SCT130
     FM161100 VRB03KT P6SM BKN050
     FM161500 23007KT P6SM -SHRA OVC040
     FM161800 24007KT P6SM OVC035
     FM162000 28007KT P6SM BKN050
     FM170000 29005KT P6SM SCT250=

USA.gov is the U.S. government's official web portal to all federal, state and local government web resources and services.